Time;durP1;ratioP1;P1;durP2;ratioP2;P2;SDS_P1;SDS_P2;PMS_P1;PMS_P2;Temp;Humidity;BMP_temperature;BMP_pressure;BME280_temperature;BME280_humidity;BME280_pressure;Samples;Min_cycle;Max_cycle;Signal;HPM_P1;HPM_P2
2023/08/11 00:01:33;;;;;;;0.70;0.70;;;;;;;;;;5013057;28;20201;-89
2023/08/11 00:04:01;;;;;;;0.70;0.70;;;;;;;;;;5012748;28;20200;-89
2023/08/11 00:06:30;;;;;;;1.07;1.07;;;;;;;;;;5012222;28;20202;-88
2023/08/11 00:08:59;;;;;;;0.80;0.80;;;;;;;;;;5012197;28;20207;-89
2023/08/11 00:11:29;;;;;;;0.40;0.40;;;;;;;;;;5012712;28;20216;-89
2023/08/11 00:13:57;;;;;;;0.90;0.90;;;;;;;;;;5011653;28;20214;-89
2023/08/11 00:16:26;;;;;;;5.63;5.13;;;;;;;;;;5011635;28;20199;-89
2023/08/11 00:18:54;;;;;;;10.10;6.77;;;;;;;;;;5012412;28;20232;-89
2023/08/11 00:21:23;;;;;;;11.30;6.93;;;;;;;;;;5012505;28;20204;-89
2023/08/11 00:23:52;;;;;;;16.57;6.77;;;;;;;;;;5012875;28;20285;-89
2023/08/11 00:26:20;;;;;;;14.07;8.20;;;;;;;;;;5011961;28;20262;-89
2023/08/11 00:28:50;;;;;;;8.07;7.27;;;;;;;;;;5012107;28;20195;-89
2023/08/11 00:31:19;;;;;;;8.10;6.43;;;;;;;;;;5011965;28;20203;-89
2023/08/11 00:33:48;;;;;;;5.23;4.23;;;;;;;;;;5011607;28;20224;-88
2023/08/11 00:36:17;;;;;;;6.87;5.60;;;;;;;;;;5012044;28;20200;-87
2023/08/11 00:38:45;;;;;;;10.70;6.83;;;;;;;;;;5012537;28;20411;-87
2023/08/11 00:41:16;;;;;;;4.57;4.13;;;;;;;;;;5012111;28;20204;-90
2023/08/11 00:43:45;;;;;;;7.50;5.43;;;;;;;;;;5012400;28;20226;-87
2023/08/11 00:46:15;;;;;;;5.30;4.73;;;;;;;;;;5011734;28;20200;-87
2023/08/11 00:48:44;;;;;;;9.10;4.60;;;;;;;;;;5012271;28;20196;-87
2023/08/11 00:51:15;;;;;;;7.50;6.70;;;;;;;;;;5011366;28;20226;-87
2023/08/11 00:53:43;;;;;;;5.40;4.90;;;;;;;;;;5012271;28;20207;-87
2023/08/11 00:56:13;;;;;;;11.57;6.30;;;;;;;;;;5011986;28;20203;-87
2023/08/11 00:58:43;;;;;;;8.13;7.10;;;;;;;;;;5012015;28;20224;-87
2023/08/11 01:01:12;;;;;;;5.67;4.37;;;;;;;;;;5011369;28;20232;-87
2023/08/11 01:03:43;;;;;;;7.30;5.13;;;;;;;;;;5011888;28;20231;-87
2023/08/11 01:06:18;;;;;;;3.20;2.20;;;;;;;;;;5011941;28;20200;-87
2023/08/11 01:08:51;;;;;;;0.30;0.30;;;;;;;;;;5011805;28;20215;-87
2023/08/11 01:11:23;;;;;;;1.33;1.23;;;;;;;;;;5011523;28;20211;-87
2023/08/11 01:13:55;;;;;;;3.00;1.83;;;;;;;;;;5012102;28;20227;-90
2023/08/11 01:16:25;;;;;;;1.93;1.77;;;;;;;;;;5011485;28;20204;-87
2023/08/11 01:18:55;;;;;;;1.13;1.13;;;;;;;;;;5011539;28;20271;-87
2023/08/11 01:21:26;;;;;;;0.57;0.57;;;;;;;;;;5011620;28;20204;-87
2023/08/11 01:23:57;;;;;;;4.93;4.43;;;;;;;;;;5013008;28;20215;-88
2023/08/11 01:26:26;;;;;;;5.90;3.63;;;;;;;;;;5015275;28;20208;-87
2023/08/11 01:28:55;;;;;;;0.60;0.60;;;;;;;;;;5015297;28;20232;-89
2023/08/11 01:31:23;;;;;;;8.13;5.37;;;;;;;;;;5015750;28;20203;-87
2023/08/11 01:33:52;;;;;;;11.47;7.13;;;;;;;;;;5015467;28;20251;-87
2023/08/11 01:36:20;;;;;;;10.07;8.83;;;;;;;;;;5015265;28;20324;-88
2023/08/11 01:38:49;;;;;;;11.97;8.40;;;;;;;;;;5015539;28;20216;-88
2023/08/11 01:41:19;;;;;;;9.23;8.30;;;;;;;;;;5015444;28;20207;-87
2023/08/11 01:43:47;;;;;;;7.93;6.50;;;;;;;;;;5015041;28;20211;-87
2023/08/11 01:46:16;;;;;;;9.07;7.23;;;;;;;;;;5015422;28;20204;-87
2023/08/11 01:48:44;;;;;;;7.57;6.60;;;;;;;;;;5014913;28;20215;-88
2023/08/11 01:51:13;;;;;;;10.13;9.00;;;;;;;;;;5014944;28;20223;-87
2023/08/11 01:53:42;;;;;;;4.40;4.00;;;;;;;;;;5014911;28;20204;-88
2023/08/11 01:56:10;;;;;;;9.70;8.10;;;;;;;;;;5015062;28;20207;-87
2023/08/11 01:58:41;;;;;;;9.10;7.50;;;;;;;;;;5014700;28;20220;-87
2023/08/11 02:01:09;;;;;;;9.80;8.77;;;;;;;;;;5014808;28;20206;-87
2023/08/11 02:03:38;;;;;;;10.63;8.60;;;;;;;;;;5014611;28;20200;-88
2023/08/11 02:06:06;;;;;;;9.40;7.63;;;;;;;;;;5014727;28;20188;-87
2023/08/11 02:08:35;;;;;;;8.70;7.27;;;;;;;;;;5014902;28;20196;-88
2023/08/11 02:11:04;;;;;;;10.63;8.63;;;;;;;;;;5013975;28;20202;-87
2023/08/11 02:13:33;;;;;;;8.70;7.23;;;;;;;;;;5014902;28;20208;-88
2023/08/11 02:16:03;;;;;;;8.73;7.70;;;;;;;;;;5014590;28;20200;-87
2023/08/11 02:18:32;;;;;;;10.00;8.53;;;;;;;;;;5014255;28;20217;-87
2023/08/11 02:21:02;;;;;;;12.80;8.13;;;;;;;;;;5013978;28;20205;-88
2023/08/11 02:23:30;;;;;;;8.60;7.10;;;;;;;;;;5014535;28;20211;-84
2023/08/11 02:25:59;;;;;;;8.17;6.83;;;;;;;;;;5014068;28;20232;-83
2023/08/11 02:28:28;;;;;;;9.63;8.20;;;;;;;;;;5013842;28;20196;-84
2023/08/11 02:30:57;;;;;;;9.63;7.40;;;;;;;;;;5014531;28;20240;-87
2023/08/11 02:33:27;;;;;;;12.03;8.33;;;;;;;;;;5014175;28;20259;-87
2023/08/11 02:35:55;;;;;;;6.77;6.00;;;;;;;;;;5013128;28;20200;-87
2023/08/11 02:38:24;;;;;;;7.57;6.83;;;;;;;;;;5014535;28;20225;-87
2023/08/11 02:40:52;;;;;;;8.37;7.60;;;;;;;;;;5014388;28;20196;-88
2023/08/11 02:43:21;;;;;;;9.17;8.37;;;;;;;;;;5014633;28;20201;-88
2023/08/11 02:45:49;;;;;;;11.60;8.90;;;;;;;;;;5013616;28;20196;-87
2023/08/11 02:48:18;;;;;;;8.13;6.63;;;;;;;;;;5014089;28;20227;-88
2023/08/11 02:50:48;;;;;;;10.87;9.77;;;;;;;;;;5014174;28;20318;-88
2023/08/11 02:53:17;;;;;;;3.33;3.03;;;;;;;;;;5013550;28;20270;-88
2023/08/11 02:55:45;;;;;;;9.90;8.00;;;;;;;;;;5013397;28;20202;-88
2023/08/11 02:58:14;;;;;;;10.73;8.67;;;;;;;;;;5014226;28;20201;-88
2023/08/11 03:00:42;;;;;;;9.63;8.63;;;;;;;;;;5014268;28;20222;-88
2023/08/11 03:03:11;;;;;;;8.73;7.83;;;;;;;;;;5013774;28;20203;-88
2023/08/11 03:05:40;;;;;;;10.13;9.13;;;;;;;;;;5013375;28;20201;-88
2023/08/11 03:08:09;;;;;;;10.50;9.53;;;;;;;;;;5014119;28;20201;-88
2023/08/11 03:10:38;;;;;;;11.20;8.87;;;;;;;;;;5013503;28;20202;-88
2023/08/11 03:13:23;;;;;;;11.27;9.03;;;;;;;;;;5012807;28;20219;-87
2023/08/11 03:15:52;;;;;;;10.33;9.07;;;;;;;;;;5013888;28;20207;-88
2023/08/11 03:18:21;;;;;;;11.23;9.57;;;;;;;;;;5013742;28;20289;-88
2023/08/11 03:20:50;;;;;;;11.40;9.17;;;;;;;;;;5013241;28;20226;-88
2023/08/11 03:23:23;;;;;;;11.53;9.33;;;;;;;;;;5013555;28;20267;-88
2023/08/11 03:25:51;;;;;;;12.13;10.83;;;;;;;;;;5013660;28;20239;-88
2023/08/11 03:28:20;;;;;;;11.80;10.60;;;;;;;;;;5013178;28;20188;-88
2023/08/11 03:30:48;;;;;;;12.23;10.40;;;;;;;;;;5013169;28;20207;-88
2023/08/11 03:33:17;;;;;;;10.90;9.90;;;;;;;;;;5013232;28;20237;-87
2023/08/11 03:35:48;;;;;;;12.40;10.83;;;;;;;;;;5005089;28;20302;-88
2023/08/11 03:38:16;;;;;;;11.13;8.00;;;;;;;;;;5013251;28;20201;-88
2023/08/11 03:40:46;;;;;;;12.63;10.47;;;;;;;;;;5012755;28;20221;-88
2023/08/11 03:43:15;;;;;;;11.93;8.13;;;;;;;;;;5012976;28;20342;-88
2023/08/11 03:45:43;;;;;;;11.50;10.30;;;;;;;;;;5012737;28;20192;-87
2023/08/11 03:48:12;;;;;;;12.70;5.33;;;;;;;;;;5012606;28;20275;-88
2023/08/11 03:50:40;;;;;;;10.77;8.90;;;;;;;;;;5016286;28;20204;-89
2023/08/11 03:53:09;;;;;;;12.70;11.50;;;;;;;;;;5012697;28;20244;-89
2023/08/11 03:55:38;;;;;;;11.90;9.23;;;;;;;;;;5012573;28;20206;-89
2023/08/11 03:58:08;;;;;;;10.03;8.27;;;;;;;;;;5012684;28;20206;-89
2023/08/11 04:00:36;;;;;;;15.00;13.40;;;;;;;;;;5012536;28;20231;-89
2023/08/11 04:03:05;;;;;;;12.53;11.33;;;;;;;;;;5014010;28;20227;-89
2023/08/11 04:05:34;;;;;;;10.63;7.80;;;;;;;;;;5013830;28;20207;-88
2023/08/11 04:08:02;;;;;;;13.23;11.83;;;;;;;;;;5014591;28;20204;-89
2023/08/11 04:10:31;;;;;;;17.43;13.33;;;;;;;;;;5014837;28;20192;-90
2023/08/11 04:12:59;;;;;;;10.73;9.63;;;;;;;;;;5013967;28;20204;-89
2023/08/11 04:15:29;;;;;;;13.27;11.87;;;;;;;;;;5013423;28;20299;-89
2023/08/11 04:17:58;;;;;;;10.30;7.97;;;;;;;;;;5013314;28;20333;-89
2023/08/11 04:20:28;;;;;;;12.90;11.63;;;;;;;;;;5014284;28;20220;-90
2023/08/11 04:22:57;;;;;;;17.37;12.37;;;;;;;;;;5012662;28;20212;-89
2023/08/11 04:25:26;;;;;;;15.20;13.60;;;;;;;;;;5013293;28;20258;-89
2023/08/11 04:27:55;;;;;;;16.23;13.03;;;;;;;;;;5013726;28;20212;-89
2023/08/11 04:30:24;;;;;;;9.80;7.63;;;;;;;;;;5013704;28;20200;-88
2023/08/11 04:32:54;;;;;;;14.53;12.70;;;;;;;;;;5013339;28;20204;-89
2023/08/11 04:35:23;;;;;;;13.30;11.30;;;;;;;;;;5012371;28;20294;-84
2023/08/11 04:37:51;;;;;;;23.13;12.63;;;;;;;;;;5012453;28;20298;-84
2023/08/11 04:40:20;;;;;;;17.13;15.33;;;;;;;;;;5011808;28;20283;-84
2023/08/11 04:42:49;;;;;;;19.90;17.30;;;;;;;;;;5012097;28;20206;-84
2023/08/11 04:45:18;;;;;;;11.70;10.30;;;;;;;;;;5011725;28;20226;-84
2023/08/11 04:47:46;;;;;;;9.47;8.53;;;;;;;;;;5012246;28;20245;-84
2023/08/11 04:50:17;;;;;;;11.47;10.03;;;;;;;;;;5011298;28;20200;-84
2023/08/11 04:52:45;;;;;;;17.07;14.53;;;;;;;;;;5011600;28;20270;-84
2023/08/11 04:55:14;;;;;;;16.97;14.53;;;;;;;;;;5011854;28;20246;-84
2023/08/11 04:57:43;;;;;;;15.63;13.40;;;;;;;;;;5011625;28;20250;-85
2023/08/11 05:00:14;;;;;;;17.53;13.27;;;;;;;;;;5011002;28;20224;-84
2023/08/11 05:02:43;;;;;;;16.10;14.40;;;;;;;;;;5011736;28;20202;-84
2023/08/11 05:05:13;;;;;;;15.90;14.40;;;;;;;;;;5011810;28;20218;-84
2023/08/11 05:07:43;;;;;;;15.90;11.10;;;;;;;;;;5011312;28;20208;-84
2023/08/11 05:10:14;;;;;;;17.13;15.43;;;;;;;;;;5012280;28;20214;-84
2023/08/11 05:12:43;;;;;;;17.57;14.40;;;;;;;;;;5011807;28;20209;-84
2023/08/11 05:15:12;;;;;;;14.20;12.83;;;;;;;;;;5012056;28;20210;-84
2023/08/11 05:17:41;;;;;;;17.03;15.03;;;;;;;;;;5012063;28;20328;-83
2023/08/11 05:20:11;;;;;;;15.77;13.43;;;;;;;;;;5011871;28;20219;-84
2023/08/11 05:22:40;;;;;;;18.03;13.57;;;;;;;;;;5012260;28;20215;-84
2023/08/11 05:25:10;;;;;;;18.47;16.60;;;;;;;;;;5011189;28;20201;-84
2023/08/11 05:27:39;;;;;;;15.40;13.87;;;;;;;;;;5011751;28;20204;-84
2023/08/11 05:30:08;;;;;;;17.67;15.97;;;;;;;;;;5011936;28;20206;-84
2023/08/11 05:32:37;;;;;;;13.77;12.37;;;;;;;;;;5011428;28;20209;-84
2023/08/11 05:35:08;;;;;;;17.73;14.97;;;;;;;;;;5011457;28;20204;-84
2023/08/11 05:37:37;;;;;;;17.90;15.97;;;;;;;;;;5011705;28;20207;-84
2023/08/11 05:40:08;;;;;;;17.03;13.53;;;;;;;;;;5011532;28;20212;-84
2023/08/11 05:42:39;;;;;;;18.70;15.73;;;;;;;;;;5011514;28;20201;-84
2023/08/11 05:45:08;;;;;;;18.77;16.80;;;;;;;;;;5011612;28;20211;-84
2023/08/11 05:47:37;;;;;;;16.13;12.43;;;;;;;;;;5011893;28;20303;-84
2023/08/11 05:50:06;;;;;;;17.70;15.13;;;;;;;;;;5011237;28;20191;-84
2023/08/11 05:52:35;;;;;;;16.80;15.13;;;;;;;;;;5010865;28;20246;-84
2023/08/11 05:55:04;;;;;;;17.57;14.70;;;;;;;;;;5012050;28;20298;-90
2023/08/11 05:57:32;;;;;;;19.97;16.63;;;;;;;;;;5013600;28;20235;-89
2023/08/11 06:00:03;;;;;;;19.70;17.97;;;;;;;;;;5013150;28;20251;-90
2023/08/11 06:02:32;;;;;;;17.03;14.93;;;;;;;;;;5013272;28;20203;-87
2023/08/11 06:05:00;;;;;;;17.97;15.60;;;;;;;;;;5012350;28;20254;-84
2023/08/11 06:07:29;;;;;;;25.03;16.80;;;;;;;;;;5011638;28;20292;-84
2023/08/11 06:09:58;;;;;;;18.83;14.73;;;;;;;;;;5011160;28;20207;-84
2023/08/11 06:12:33;;;;;;;15.80;10.87;;;;;;;;;;5010166;28;20215;-87
2023/08/11 06:15:05;;;;;;;11.73;9.77;;;;;;;;;;5014209;28;20209;-87
2023/08/11 06:17:34;;;;;;;13.90;12.00;;;;;;;;;;5013981;28;20231;-86
2023/08/11 06:20:04;;;;;;;16.67;14.97;;;;;;;;;;5015381;28;20239;-87
2023/08/11 06:22:34;;;;;;;17.23;15.03;;;;;;;;;;5015173;28;20215;-87
2023/08/11 06:25:03;;;;;;;18.40;16.43;;;;;;;;;;5015039;28;20239;-87
2023/08/11 06:27:32;;;;;;;18.53;15.63;;;;;;;;;;5014084;28;20211;-88
2023/08/11 06:30:02;;;;;;;11.57;8.30;;;;;;;;;;5014894;28;20200;-88
2023/08/11 06:32:33;;;;;;;18.67;16.67;;;;;;;;;;5015078;28;20189;-88
2023/08/11 06:35:03;;;;;;;17.57;15.77;;;;;;;;;;5014908;28;20201;-88
2023/08/11 06:37:31;;;;;;;21.57;18.53;;;;;;;;;;5014642;28;20207;-87
2023/08/11 06:40:00;;;;;;;19.57;14.13;;;;;;;;;;5015541;28;20248;-87
2023/08/11 06:42:29;;;;;;;16.47;10.67;;;;;;;;;;5014644;28;20232;-88
2023/08/11 06:44:58;;;;;;;12.90;9.03;;;;;;;;;;5013745;28;20199;-87
2023/08/11 06:47:26;;;;;;;19.23;14.40;;;;;;;;;;5014986;28;20216;-88
2023/08/11 06:49:58;;;;;;;18.93;13.30;;;;;;;;;;5014588;28;20201;-87
2023/08/11 06:52:27;;;;;;;19.53;12.70;;;;;;;;;;5013409;28;20540;-88
2023/08/11 06:54:56;;;;;;;14.27;10.13;;;;;;;;;;5014719;28;20209;-88
2023/08/11 06:57:25;;;;;;;12.50;9.57;;;;;;;;;;5014560;28;20214;-88
2023/08/11 06:59:54;;;;;;;7.83;5.33;;;;;;;;;;5014444;28;20207;-88
2023/08/11 07:02:22;;;;;;;2.33;2.00;;;;;;;;;;5013521;28;20243;-88
2023/08/11 07:04:51;;;;;;;8.03;5.63;;;;;;;;;;5015085;28;20292;-88
2023/08/11 07:07:21;;;;;;;11.47;8.10;;;;;;;;;;5015051;28;20322;-88
2023/08/11 07:09:50;;;;;;;10.13;9.10;;;;;;;;;;5015284;28;20250;-88
2023/08/11 07:12:20;;;;;;;13.10;6.90;;;;;;;;;;5014025;28;20256;-88
2023/08/11 07:14:52;;;;;;;15.13;10.63;;;;;;;;;;5015201;28;20202;-90
2023/08/11 07:17:20;;;;;;;10.30;8.07;;;;;;;;;;5015052;28;20213;-88
2023/08/11 07:19:49;;;;;;;3.97;2.10;;;;;;;;;;5013971;28;20270;-88
2023/08/11 07:22:18;;;;;;;12.60;9.77;;;;;;;;;;5013490;28;20221;-88
2023/08/11 07:24:48;;;;;;;12.30;10.07;;;;;;;;;;5014341;28;20195;-88
2023/08/11 07:27:19;;;;;;;7.53;6.23;;;;;;;;;;5014110;28;20231;-88
2023/08/11 07:29:48;;;;;;;14.97;10.13;;;;;;;;;;5014049;28;20200;-88
2023/08/11 07:32:18;;;;;;;14.07;9.47;;;;;;;;;;5014042;28;20229;-88
2023/08/11 07:34:49;;;;;;;11.17;7.70;;;;;;;;;;5014931;28;20206;-88
2023/08/11 07:37:18;;;;;;;8.03;7.23;;;;;;;;;;5013836;28;20230;-88
2023/08/11 07:39:51;;;;;;;13.77;9.53;;;;;;;;;;5014744;28;20216;-88
2023/08/11 07:42:19;;;;;;;7.97;6.37;;;;;;;;;;5014114;28;20218;-88
2023/08/11 07:44:49;;;;;;;12.20;7.93;;;;;;;;;;5014425;28;20431;-88
2023/08/11 07:47:19;;;;;;;12.73;7.80;;;;;;;;;;5013829;28;20199;-88
2023/08/11 07:49:48;;;;;;;3.00;2.70;;;;;;;;;;5014193;28;20206;-88
2023/08/11 07:52:21;;;;;;;1.57;1.50;;;;;;;;;;5013931;28;20321;-88
2023/08/11 07:54:51;;;;;;;5.43;4.07;;;;;;;;;;5006095;28;20202;-88
2023/08/11 07:57:20;;;;;;;6.30;5.70;;;;;;;;;;5014269;28;20238;-88
2023/08/11 07:59:51;;;;;;;2.53;2.33;;;;;;;;;;5014600;28;20209;-89
2023/08/11 08:02:20;;;;;;;3.80;2.40;;;;;;;;;;5013708;28;20211;-89
2023/08/11 08:04:50;;;;;;;8.90;2.47;;;;;;;;;;5014229;28;20243;-89
2023/08/11 08:07:21;;;;;;;5.40;4.07;;;;;;;;;;5015083;28;20211;-89
2023/08/11 08:09:52;;;;;;;1.00;1.00;;;;;;;;;;5006430;28;20193;-89
2023/08/11 08:12:21;;;;;;;2.27;2.07;;;;;;;;;;5013814;28;20207;-88
2023/08/11 08:14:50;;;;;;;2.57;2.37;;;;;;;;;;5014413;28;20205;-89
2023/08/11 08:17:19;;;;;;;2.20;1.47;;;;;;;;;;5014425;28;20263;-89
2023/08/11 08:19:50;;;;;;;1.20;1.17;;;;;;;;;;5014586;28;20464;-89
2023/08/11 08:22:21;;;;;;;4.17;2.23;;;;;;;;;;5013233;28;20221;-89
2023/08/11 08:24:50;;;;;;;3.53;2.20;;;;;;;;;;5014445;28;20198;-89
2023/08/11 08:27:24;;;;;;;1.93;1.40;;;;;;;;;;5014933;28;20198;-89
2023/08/11 08:29:55;;;;;;;3.10;1.87;;;;;;;;;;5013377;28;20207;-89
2023/08/11 08:32:24;;;;;;;1.43;0.90;;;;;;;;;;5013747;28;20187;-90
2023/08/11 08:34:55;;;;;;;2.30;1.40;;;;;;;;;;5013385;28;20257;-90
2023/08/11 08:37:28;;;;;;;5.10;2.00;;;;;;;;;;5013930;28;20210;-89
2023/08/11 08:39:57;;;;;;;3.97;2.77;;;;;;;;;;5014290;28;20260;-89
2023/08/11 08:42:27;;;;;;;1.37;1.27;;;;;;;;;;5014450;28;20217;-89
2023/08/11 08:44:56;;;;;;;0.87;0.87;;;;;;;;;;5014998;28;20223;-89
2023/08/11 08:47:26;;;;;;;4.60;3.83;;;;;;;;;;5014306;28;20214;-89
2023/08/11 08:49:55;;;;;;;4.70;3.20;;;;;;;;;;5014601;28;20214;-91
2023/08/11 08:52:24;;;;;;;3.47;2.77;;;;;;;;;;5015420;28;20322;-91
2023/08/11 08:54:55;;;;;;;3.57;2.83;;;;;;;;;;5015781;28;20207;-91
2023/08/11 08:57:26;;;;;;;8.70;2.77;;;;;;;;;;5014639;28;20218;-91
2023/08/11 09:00:00;;;;;;;10.73;2.47;;;;;;;;;;5015625;28;20260;-91
2023/08/11 09:02:29;;;;;;;6.37;3.50;;;;;;;;;;5015196;28;20326;-91
2023/08/11 09:04:58;;;;;;;4.97;3.63;;;;;;;;;;5014726;28;20221;-91
2023/08/11 09:07:27;;;;;;;5.53;3.80;;;;;;;;;;5013683;28;20210;-91
2023/08/11 09:09:56;;;;;;;4.80;3.07;;;;;;;;;;5014601;28;20258;-91
2023/08/11 09:12:27;;;;;;;4.93;3.50;;;;;;;;;;5013705;28;20199;-91
2023/08/11 09:14:58;;;;;;;5.80;3.47;;;;;;;;;;5013186;28;20467;-91
2023/08/11 09:17:29;;;;;;;6.73;4.10;;;;;;;;;;5013938;28;20297;-91
2023/08/11 09:19:58;;;;;;;0.63;0.63;;;;;;;;;;5014290;28;20247;-91
2023/08/11 09:22:27;;;;;;;5.33;2.57;;;;;;;;;;5013665;28;20241;-91
2023/08/11 09:24:56;;;;;;;4.40;3.23;;;;;;;;;;5013610;28;20302;-92
2023/08/11 09:27:24;;;;;;;5.57;3.83;;;;;;;;;;5013871;28;20207;-92
2023/08/11 09:29:57;;;;;;;10.77;4.30;;;;;;;;;;5014325;28;20196;-91
2023/08/11 09:32:27;;;;;;;5.97;3.67;;;;;;;;;;5013754;28;20203;-91
2023/08/11 09:35:02;;;;;;;3.40;2.13;;;;;;;;;;5015203;28;20207;-91
2023/08/11 09:37:32;;;;;;;3.57;2.37;;;;;;;;;;5014593;28;20197;-92
2023/08/11 09:40:04;;;;;;;7.07;4.30;;;;;;;;;;5015071;28;20239;-93
2023/08/11 09:42:34;;;;;;;5.27;3.37;;;;;;;;;;5015569;28;20211;-91
2023/08/11 09:45:04;;;;;;;5.60;3.43;;;;;;;;;;5016056;28;20204;-93
2023/08/11 09:47:32;;;;;;;4.00;2.40;;;;;;;;;;5019155;28;20206;-92
2023/08/11 09:50:03;;;;;;;6.53;3.57;;;;;;;;;;5017903;28;20243;-91
2023/08/11 09:52:33;;;;;;;5.03;3.33;;;;;;;;;;5018424;28;20358;-91
2023/08/11 09:55:06;;;;;;;4.23;2.43;;;;;;;;;;5018215;28;20204;-91
2023/08/11 09:57:35;;;;;;;0.50;0.50;;;;;;;;;;5017318;28;20202;-90
2023/08/11 10:00:11;;;;;;;2.93;2.30;;;;;;;;;;5017629;28;20209;-90
2023/08/11 10:02:45;;;;;;;6.67;4.07;;;;;;;;;;5017779;28;20312;-91
2023/08/11 10:05:17;;;;;;;4.47;1.90;;;;;;;;;;5017694;28;20284;-91
2023/08/11 10:07:48;;;;;;;5.97;3.93;;;;;;;;;;5017359;28;20269;-91
2023/08/11 10:10:18;;;;;;;4.37;2.73;;;;;;;;;;5017317;28;20209;-92
2023/08/11 10:12:49;;;;;;;4.10;2.60;;;;;;;;;;5017218;28;20205;-91
2023/08/11 10:15:20;;;;;;;4.73;2.23;;;;;;;;;;5017745;28;20210;-90
2023/08/11 10:17:51;;;;;;;2.37;2.07;;;;;;;;;;5017438;28;20224;-91
2023/08/11 10:20:23;;;;;;;1.83;1.10;;;;;;;;;;5017788;28;20212;-91
2023/08/11 10:22:52;;;;;;;0.90;0.87;;;;;;;;;;5016320;28;20241;-90
2023/08/11 10:25:20;;;;;;;0.90;0.90;;;;;;;;;;5015742;28;20208;-90
2023/08/11 10:27:49;;;;;;;2.97;1.83;;;;;;;;;;5016955;28;20238;-88
2023/08/11 10:30:21;;;;;;;1.73;1.63;;;;;;;;;;5016820;28;20204;-89
2023/08/11 10:32:56;;;;;;;2.03;1.73;;;;;;;;;;5017104;28;20210;-90
2023/08/11 10:35:34;;;;;;;0.87;0.87;;;;;;;;;;5016635;28;20194;-90
2023/08/11 10:38:07;;;;;;;1.27;0.90;;;;;;;;;;5017191;28;20276;-90
2023/08/11 10:40:37;;;;;;;1.73;1.47;;;;;;;;;;5016864;28;20195;-90
2023/08/11 10:43:06;;;;;;;1.57;1.47;;;;;;;;;;5016866;28;20230;-90
2023/08/11 10:45:36;;;;;;;1.73;1.47;;;;;;;;;;5016806;28;20294;-90
2023/08/11 10:48:08;;;;;;;6.03;2.80;;;;;;;;;;5016985;28;20203;-90
2023/08/11 10:50:41;;;;;;;2.47;2.23;;;;;;;;;;5016432;28;20241;-90
2023/08/11 10:53:20;;;;;;;4.57;2.27;;;;;;;;;;5016036;28;20228;-89
2023/08/11 10:56:00;;;;;;;1.33;1.20;;;;;;;;;;5016993;28;20210;-90
2023/08/11 10:58:30;;;;;;;1.57;1.47;;;;;;;;;;5015967;28;20301;-90
2023/08/11 11:01:00;;;;;;;2.33;1.63;;;;;;;;;;5016507;28;20202;-90
2023/08/11 11:03:29;;;;;;;1.57;1.47;;;;;;;;;;5016761;28;20273;-89
2023/08/11 11:05:59;;;;;;;4.30;1.73;;;;;;;;;;5017235;28;20264;-90
2023/08/11 11:08:29;;;;;;;2.00;1.80;;;;;;;;;;5017749;28;20226;-91
2023/08/11 11:10:57;;;;;;;6.40;2.10;;;;;;;;;;5019781;28;20270;-90
2023/08/11 11:13:26;;;;;;;7.70;1.70;;;;;;;;;;5020551;28;20254;-92
2023/08/11 11:15:58;;;;;;;4.70;2.67;;;;;;;;;;5020827;28;20227;-92
2023/08/11 11:18:30;;;;;;;1.87;1.43;;;;;;;;;;5019765;28;20295;-91
2023/08/11 11:21:03;;;;;;;5.03;2.83;;;;;;;;;;5020182;28;20230;-90
2023/08/11 11:23:35;;;;;;;7.83;3.00;;;;;;;;;;5018155;28;20269;-89
2023/08/11 11:26:06;;;;;;;1.50;1.40;;;;;;;;;;5019310;28;20202;-90
2023/08/11 11:28:38;;;;;;;3.20;1.97;;;;;;;;;;5019534;28;20195;-90
2023/08/11 11:31:07;;;;;;;1.30;1.20;;;;;;;;;;5019693;28;20200;-90
2023/08/11 11:33:36;;;;;;;1.77;1.53;;;;;;;;;;5018681;28;20190;-90
2023/08/11 11:36:09;;;;;;;1.57;1.47;;;;;;;;;;5017404;28;20211;-91
2023/08/11 11:38:38;;;;;;;9.67;1.90;;;;;;;;;;5017975;28;20207;-91
2023/08/11 11:41:12;;;;;;;5.60;2.73;;;;;;;;;;5019357;28;20218;-91
2023/08/11 11:43:42;;;;;;;7.97;2.70;;;;;;;;;;5016676;28;20213;-90
2023/08/11 11:46:14;;;;;;;5.07;2.73;;;;;;;;;;5017871;28;20297;-90
2023/08/11 11:48:45;;;;;;;3.33;2.30;;;;;;;;;;5019663;28;20201;-90
2023/08/11 11:51:17;;;;;;;7.80;2.77;;;;;;;;;;5019960;28;20230;-91
2023/08/11 11:53:46;;;;;;;4.10;2.10;;;;;;;;;;5017578;28;20245;-91
2023/08/11 11:56:20;;;;;;;6.67;1.43;;;;;;;;;;5015935;28;20211;-91
2023/08/11 11:58:51;;;;;;;3.20;1.63;;;;;;;;;;5017223;28;20236;-89
2023/08/11 12:01:23;;;;;;;4.33;2.10;;;;;;;;;;5016544;28;20201;-90
2023/08/11 12:03:52;;;;;;;1.13;1.03;;;;;;;;;;5016160;28;20261;-90
2023/08/11 12:06:25;;;;;;;6.63;1.93;;;;;;;;;;5015821;28;20237;-90
2023/08/11 12:09:03;;;;;;;7.27;2.57;;;;;;;;;;5015998;28;20216;-90
2023/08/11 12:11:32;;;;;;;1.30;1.20;;;;;;;;;;5015450;28;20207;-90
2023/08/11 12:14:01;;;;;;;2.73;1.20;;;;;;;;;;5015061;28;20203;-90
2023/08/11 12:16:30;;;;;;;5.60;2.13;;;;;;;;;;5015377;28;20214;-90
2023/08/11 12:19:01;;;;;;;3.40;2.23;;;;;;;;;;5014828;28;20226;-90
2023/08/11 12:21:32;;;;;;;6.80;2.60;;;;;;;;;;5014847;28;20210;-90
2023/08/11 12:24:01;;;;;;;2.67;1.77;;;;;;;;;;5015320;28;20236;-90
2023/08/11 12:26:31;;;;;;;6.83;1.40;;;;;;;;;;5015249;28;20214;-91
2023/08/11 12:29:00;;;;;;;4.40;1.27;;;;;;;;;;5014968;28;20215;-91
2023/08/11 12:31:32;;;;;;;3.33;2.23;;;;;;;;;;5015270;28;20196;-91
2023/08/11 12:34:01;;;;;;;5.23;2.90;;;;;;;;;;5015686;28;20194;-91
2023/08/11 12:36:30;;;;;;;1.80;1.03;;;;;;;;;;5015514;28;20299;-91
2023/08/11 12:39:00;;;;;;;2.53;2.03;;;;;;;;;;5014446;28;20207;-91
2023/08/11 12:41:29;;;;;;;3.67;1.70;;;;;;;;;;5015005;28;20201;-91
2023/08/11 12:43:58;;;;;;;1.80;1.63;;;;;;;;;;5015392;28;20229;-91
2023/08/11 12:46:26;;;;;;;1.70;1.60;;;;;;;;;;5016058;28;20200;-91
2023/08/11 12:49:01;;;;;;;1.93;1.77;;;;;;;;;;5015680;28;20228;-91
2023/08/11 12:51:32;;;;;;;7.27;2.33;;;;;;;;;;5015677;28;20228;-91
2023/08/11 12:54:05;;;;;;;4.73;2.67;;;;;;;;;;5014504;28;20267;-91
2023/08/11 12:56:34;;;;;;;3.63;1.60;;;;;;;;;;5013898;28;20192;-91
2023/08/11 12:59:04;;;;;;;4.07;1.63;;;;;;;;;;5014454;28;20193;-91
2023/08/11 13:01:37;;;;;;;4.13;1.90;;;;;;;;;;5015055;28;20196;-91
2023/08/11 13:04:08;;;;;;;3.87;1.60;;;;;;;;;;5015172;28;20239;-90
2023/08/11 13:06:36;;;;;;;8.47;2.90;;;;;;;;;;5014709;28;20204;-90
2023/08/11 13:09:08;;;;;;;1.37;1.03;;;;;;;;;;5015149;28;20206;-91
2023/08/11 13:11:37;;;;;;;2.23;1.20;;;;;;;;;;5014707;28;20201;-91
2023/08/11 13:14:08;;;;;;;1.57;1.00;;;;;;;;;;5014986;28;20288;-91
2023/08/11 13:16:37;;;;;;;1.60;1.30;;;;;;;;;;5014934;28;20197;-91
2023/08/11 13:19:06;;;;;;;3.97;2.93;;;;;;;;;;5015316;28;20206;-91
2023/08/11 13:21:34;;;;;;;2.77;1.63;;;;;;;;;;5017913;28;20213;-91
2023/08/11 13:24:04;;;;;;;4.97;1.90;;;;;;;;;;5017942;28;20209;-90
2023/08/11 13:26:36;;;;;;;0.70;0.70;;;;;;;;;;5017687;28;20205;-90
2023/08/11 13:29:05;;;;;;;1.47;1.13;;;;;;;;;;5017644;28;20225;-90
2023/08/11 13:31:37;;;;;;;4.50;1.27;;;;;;;;;;5017541;28;20207;-90
2023/08/11 13:34:06;;;;;;;3.20;2.90;;;;;;;;;;5018252;28;20240;-90
2023/08/11 13:36:35;;;;;;;5.03;1.73;;;;;;;;;;5017430;28;20191;-91
2023/08/11 13:39:05;;;;;;;2.53;1.73;;;;;;;;;;5018067;28;20212;-91
2023/08/11 13:41:36;;;;;;;2.57;1.73;;;;;;;;;;5017946;28;20207;-91
2023/08/11 13:44:07;;;;;;;2.20;1.37;;;;;;;;;;5017904;28;20214;-91
2023/08/11 13:46:36;;;;;;;1.23;1.13;;;;;;;;;;5018114;28;20250;-91
2023/08/11 13:49:05;;;;;;;5.60;2.10;;;;;;;;;;5018178;28;20208;-90
2023/08/11 13:51:34;;;;;;;2.47;1.30;;;;;;;;;;5017943;28;20214;-91
2023/08/11 13:54:03;;;;;;;2.20;2.10;;;;;;;;;;5017500;28;20249;-91
2023/08/11 13:56:33;;;;;;;2.93;1.73;;;;;;;;;;5018575;28;20210;-91
2023/08/11 13:59:04;;;;;;;3.23;1.97;;;;;;;;;;5016685;28;20304;-91
2023/08/11 14:01:34;;;;;;;3.90;2.00;;;;;;;;;;5017344;28;20234;-91
2023/08/11 14:04:02;;;;;;;2.30;1.73;;;;;;;;;;5015835;28;20203;-91
2023/08/11 14:06:31;;;;;;;13.57;2.00;;;;;;;;;;5014829;28;20354;-92
2023/08/11 14:09:00;;;;;;;1.90;1.23;;;;;;;;;;5015522;28;20217;-91
2023/08/11 14:11:31;;;;;;;6.00;2.40;;;;;;;;;;5016125;28;20199;-91
2023/08/11 14:14:00;;;;;;;5.37;4.07;;;;;;;;;;5015216;28;20210;-92
2023/08/11 14:16:30;;;;;;;9.07;2.83;;;;;;;;;;5015073;28;20209;-90
2023/08/11 14:19:02;;;;;;;2.17;1.73;;;;;;;;;;5015173;28;20338;-90
2023/08/11 14:21:31;;;;;;;3.37;2.33;;;;;;;;;;5015458;28;20303;-90
2023/08/11 14:24:00;;;;;;;4.93;3.13;;;;;;;;;;5014829;28;20199;-90
2023/08/11 14:26:28;;;;;;;6.33;2.37;;;;;;;;;;5014848;28;20263;-91
2023/08/11 14:28:57;;;;;;;9.63;1.83;;;;;;;;;;5015191;28;20269;-91
2023/08/11 14:31:26;;;;;;;2.57;1.57;;;;;;;;;;5013423;28;20221;-90
2023/08/11 14:33:56;;;;;;;4.43;1.77;;;;;;;;;;5014470;28;20227;-91
2023/08/11 14:36:25;;;;;;;1.60;1.50;;;;;;;;;;5015422;28;20211;-91
2023/08/11 14:38:56;;;;;;;6.00;1.97;;;;;;;;;;5015174;28;20208;-92
2023/08/11 14:41:28;;;;;;;7.17;2.60;;;;;;;;;;5014342;28;20207;-91
2023/08/11 14:43:56;;;;;;;6.87;3.70;;;;;;;;;;5015240;28;20207;-90
2023/08/11 14:46:27;;;;;;;4.03;2.13;;;;;;;;;;5014676;28;20215;-89
2023/08/11 14:48:57;;;;;;;5.33;2.20;;;;;;;;;;5014545;28;20204;-89
2023/08/11 14:51:27;;;;;;;2.47;1.47;;;;;;;;;;5014095;28;20288;-90